Time;durP1;ratioP1;P1;durP2;ratioP2;P2;SDS_P1;SDS_P2;PMS_P1;PMS_P2;Temp;Humidity;BMP_temperature;BMP_pressure;BME280_temperature;BME280_humidity;BME280_pressure;Samples;Min_cycle;Max_cycle;Signal;HPM_P1;HPM_P2
2023/05/18 00:00:45;;;;;;;9.10;3.50;;;10.40;99.90;;;;;;2097837;28;20809;-76
2023/05/18 00:01:46;;;;;;;8.10;3.50;;;10.40;99.90;;;;;;2098661;28;20028;-76
2023/05/18 00:02:48;;;;;;;8.80;3.30;;;10.40;99.90;;;;;;2090051;28;20025;-76
2023/05/18 00:03:48;;;;;;;9.05;3.60;;;10.40;99.90;;;;;;2090350;28;20629;-76
2023/05/18 00:04:49;;;;;;;10.07;3.40;;;10.40;99.90;;;;;;2109556;28;20027;-76
2023/05/18 00:05:49;;;;;;;9.60;3.67;;;10.50;99.90;;;;;;2107221;28;20027;-77
2023/05/18 00:06:55;;;;;;;8.82;3.33;;;10.50;99.90;;;;;;2098491;28;20548;-77
2023/05/18 00:07:56;;;;;;;8.23;3.45;;;10.50;99.90;;;;;;2098451;28;20036;-76
2023/05/18 00:08:56;;;;;;;7.50;3.22;;;10.50;99.90;;;;;;2089292;28;20032;-76
2023/05/18 00:09:57;;;;;;;7.82;3.55;;;10.50;99.90;;;;;;2100423;28;20424;-77
2023/05/18 00:10:57;;;;;;;11.05;3.63;;;10.50;99.90;;;;;;2107330;28;20260;-77
2023/05/18 00:11:59;;;;;;;9.00;3.47;;;10.50;99.90;;;;;;2106232;28;20255;-76
2023/05/18 00:13:00;;;;;;;8.52;3.28;;;10.40;99.90;;;;;;2098154;28;20122;-76
2023/05/18 00:14:02;;;;;;;7.28;3.20;;;10.40;99.90;;;;;;2091779;28;20024;-76
2023/05/18 00:15:03;;;;;;;9.55;3.30;;;10.40;99.90;;;;;;2098439;28;20068;-77
2023/05/18 00:16:03;;;;;;;6.65;3.00;;;10.40;99.90;;;;;;2107387;28;20023;-76
2023/05/18 00:17:04;;;;;;;9.25;3.33;;;10.40;99.90;;;;;;2102584;28;20510;-76
2023/05/18 00:18:05;;;;;;;8.90;3.50;;;10.40;99.90;;;;;;2095907;28;20095;-76
2023/05/18 00:19:06;;;;;;;9.77;3.42;;;10.30;99.90;;;;;;2090920;28;20028;-77
2023/05/18 00:20:08;;;;;;;9.88;3.33;;;10.30;99.90;;;;;;2107328;28;20031;-77
2023/05/18 00:21:09;;;;;;;6.68;3.20;;;10.30;99.90;;;;;;2088462;28;20032;-78
2023/05/18 00:22:09;;;;;;;10.82;3.60;;;10.30;99.90;;;;;;2086360;28;20314;-77
2023/05/18 00:23:15;;;;;;;6.25;3.30;;;10.30;99.90;;;;;;2095517;28;20034;-77
2023/05/18 00:24:15;;;;;;;9.85;3.50;;;10.30;99.90;;;;;;2102388;28;20067;-77
2023/05/18 00:25:16;;;;;;;6.85;3.40;;;10.20;99.90;;;;;;2098143;28;20066;-77
2023/05/18 00:26:16;;;;;;;7.20;3.10;;;10.20;99.90;;;;;;2098589;28;20343;-77
2023/05/18 00:27:18;;;;;;;8.27;3.63;;;10.20;99.90;;;;;;2091971;28;20052;-77
2023/05/18 00:28:18;;;;;;;10.85;3.83;;;10.20;99.90;;;;;;2089240;28;20520;-77
2023/05/18 00:29:19;;;;;;;10.27;3.50;;;10.20;99.90;;;;;;2081670;28;20043;-78
2023/05/18 00:30:22;;;;;;;9.40;3.70;;;10.20;99.90;;;;;;2081447;28;20036;-77
2023/05/18 00:31:23;;;;;;;9.45;3.30;;;10.20;99.90;;;;;;2079807;28;20403;-77
2023/05/18 00:32:23;;;;;;;9.25;3.50;;;10.20;99.90;;;;;;2087311;28;20036;-76
2023/05/18 00:33:25;;;;;;;8.55;3.40;;;10.20;99.90;;;;;;2091848;28;20063;-77
2023/05/18 00:34:26;;;;;;;8.15;3.40;;;10.10;99.90;;;;;;2098222;28;20024;-76
2023/05/18 00:35:28;;;;;;;8.25;3.17;;;10.10;99.90;;;;;;2098123;28;20036;-76
2023/05/18 00:36:30;;;;;;;8.30;3.47;;;10.10;99.90;;;;;;2098286;28;20039;-76
2023/05/18 00:37:30;;;;;;;10.07;3.60;;;10.10;99.90;;;;;;2109564;28;20115;-76
2023/05/18 00:38:31;;;;;;;6.32;3.45;;;10.00;99.90;;;;;;2094946;28;20032;-76
2023/05/18 00:39:31;;;;;;;8.57;3.35;;;10.00;99.90;;;;;;2094209;28;20106;-76
2023/05/18 00:40:32;;;;;;;8.70;3.53;;;10.00;99.90;;;;;;2095931;28;20154;-76
2023/05/18 00:41:32;;;;;;;10.65;3.83;;;10.00;99.90;;;;;;2089915;28;20279;-75
2023/05/18 00:42:33;;;;;;;11.60;3.55;;;10.00;99.90;;;;;;2100037;28;20028;-76
2023/05/18 00:43:34;;;;;;;8.48;3.60;;;10.00;99.90;;;;;;2086144;28;20130;-76
2023/05/18 00:44:34;;;;;;;10.23;3.97;;;10.00;99.90;;;;;;2081532;28;20029;-76
2023/05/18 00:45:35;;;;;;;8.07;3.10;;;10.00;99.90;;;;;;2104793;28;20084;-76
2023/05/18 00:46:36;;;;;;;6.68;3.50;;;9.90;99.90;;;;;;2104403;28;20035;-77
2023/05/18 00:47:36;;;;;;;7.68;3.38;;;9.90;99.90;;;;;;2094999;28;20074;-77
2023/05/18 00:48:37;;;;;;;7.55;3.10;;;9.80;99.90;;;;;;2096292;28;20036;-77
2023/05/18 00:49:40;;;;;;;9.80;3.55;;;9.80;99.90;;;;;;2105344;28;20166;-77
2023/05/18 00:50:41;;;;;;;8.65;3.42;;;9.80;99.90;;;;;;2103506;28;20536;-76
2023/05/18 00:51:43;;;;;;;10.23;3.58;;;9.80;99.90;;;;;;2105383;28;20027;-77
2023/05/18 00:52:45;;;;;;;8.23;3.40;;;9.80;99.90;;;;;;2095341;28;20036;-76
2023/05/18 00:53:46;;;;;;;13.73;3.92;;;9.70;99.90;;;;;;2102988;28;20567;-76
2023/05/18 00:54:47;;;;;;;9.80;3.35;;;9.70;99.90;;;;;;2098110;28;20024;-76
2023/05/18 00:55:48;;;;;;;6.95;3.40;;;9.70;99.90;;;;;;2099961;28;20157;-77
2023/05/18 00:56:49;;;;;;;8.85;3.63;;;9.70;99.90;;;;;;2108039;28;20110;-76
2023/05/18 00:57:50;;;;;;;11.68;3.67;;;9.60;99.90;;;;;;2086365;28;20052;-76
2023/05/18 00:58:55;;;;;;;7.90;3.70;;;9.60;99.90;;;;;;2088103;28;20029;-77
2023/05/18 00:59:59;;;;;;;10.57;3.72;;;9.60;99.90;;;;;;2096481;28;20078;-77
2023/05/18 01:01:01;;;;;;;10.85;3.65;;;9.60;99.90;;;;;;2088994;28;20034;-75
2023/05/18 01:02:04;;;;;;;11.48;3.80;;;9.60;99.90;;;;;;2094866;28;20048;-75
2023/05/18 01:03:08;;;;;;;7.28;3.58;;;9.50;99.90;;;;;;2094837;28;20235;-75
2023/05/18 01:04:12;;;;;;;9.30;3.50;;;9.60;99.90;;;;;;2090577;28;20028;-75
2023/05/18 01:05:13;;;;;;;8.43;3.70;;;9.50;99.90;;;;;;2102573;28;20032;-75
2023/05/18 01:06:14;;;;;;;7.43;3.70;;;9.50;99.90;;;;;;2102736;28;20672;-75
2023/05/18 01:07:15;;;;;;;8.82;3.60;;;9.50;99.90;;;;;;2089711;28;20111;-74
2023/05/18 01:08:16;;;;;;;11.40;3.50;;;9.50;99.90;;;;;;2081126;28;20065;-76
2023/05/18 01:09:17;;;;;;;8.52;3.78;;;9.40;99.90;;;;;;2083585;28;20467;-75
2023/05/18 01:10:19;;;;;;;7.88;3.65;;;9.40;99.90;;;;;;2093336;28;20038;-75
2023/05/18 01:11:25;;;;;;;9.38;3.78;;;9.40;99.90;;;;;;2089833;28;20059;-75
2023/05/18 01:12:33;;;;;;;11.98;4.22;;;9.40;99.90;;;;;;2095489;28;20032;-75
2023/05/18 01:13:46;;;;;;;8.45;3.83;;;9.40;99.90;;;;;;2094565;28;20492;-75
2023/05/18 01:14:58;;;;;;;7.63;3.35;;;9.30;99.90;;;;;;2081859;28;20028;-75
2023/05/18 01:16:01;;;;;;;10.00;3.50;;;9.30;99.90;;;;;;2090289;28;20424;-76
2023/05/18 01:17:26;;;;;;;9.88;3.85;;;9.30;99.90;;;;;;2089972;28;20033;-76
2023/05/18 01:18:42;;;;;;;7.80;3.58;;;9.30;99.90;;;;;;2099793;28;20035;-76
2023/05/18 01:20:13;;;;;;;12.15;3.97;;;9.20;99.90;;;;;;2095498;28;20030;-75
2023/05/18 01:21:56;;;;;;;11.90;3.90;;;9.20;99.90;;;;;;2087459;28;20506;-76
2023/05/18 01:23:43;;;;;;;8.45;3.70;;;9.20;99.90;;;;;;2087451;28;20047;-76
2023/05/18 01:24:47;;;;;;;8.85;3.60;;;9.10;99.90;;;;;;2102643;28;20031;-76
2023/05/18 01:25:53;;;;;;;10.85;4.25;;;9.10;99.90;;;;;;2093161;28;20333;-76
2023/05/18 01:26:58;;;;;;;11.77;3.78;;;9.10;99.90;;;;;;2090214;28;20024;-76
2023/05/18 01:28:05;;;;;;;11.68;4.05;;;9.10;99.90;;;;;;2090302;28;20025;-77
2023/05/18 01:29:08;;;;;;;10.35;3.92;;;9.10;99.90;;;;;;2090594;28;20036;-76
2023/05/18 01:30:10;;;;;;;10.32;3.90;;;9.10;99.90;;;;;;2090593;28;20611;-76
2023/05/18 01:31:11;;;;;;;10.32;4.13;;;9.10;99.90;;;;;;2094600;28;20047;-76
2023/05/18 01:32:19;;;;;;;9.93;4.00;;;9.10;99.90;;;;;;2086558;28;20440;-75
2023/05/18 01:33:20;;;;;;;9.88;3.85;;;9.10;99.90;;;;;;2102629;28;20106;-75
2023/05/18 01:34:21;;;;;;;11.40;3.95;;;9.10;99.90;;;;;;2097781;28;20036;-75
2023/05/18 01:35:21;;;;;;;8.27;3.70;;;9.00;99.90;;;;;;2089978;28;20052;-75
2023/05/18 01:36:22;;;;;;;10.35;3.90;;;9.00;99.90;;;;;;2097850;28;20047;-76
2023/05/18 01:37:22;;;;;;;9.88;3.92;;;9.00;99.90;;;;;;2096285;28;20028;-74
2023/05/18 01:38:27;;;;;;;9.93;3.63;;;9.00;99.90;;;;;;2099501;28;20534;-74
2023/05/18 01:39:27;;;;;;;10.18;4.22;;;9.00;99.90;;;;;;2099233;28;20053;-76
2023/05/18 01:40:36;;;;;;;10.77;3.70;;;9.00;99.90;;;;;;2096884;28;20056;-77
2023/05/18 01:41:42;;;;;;;11.18;4.40;;;9.00;99.90;;;;;;2088513;28;20478;-76
2023/05/18 01:42:50;;;;;;;9.48;3.80;;;9.00;99.90;;;;;;2083120;28;20032;-75
2023/05/18 01:43:58;;;;;;;8.60;3.80;;;9.00;99.90;;;;;;2083838;28;20103;-77
2023/05/18 01:45:06;;;;;;;9.38;3.97;;;9.00;99.90;;;;;;2092895;28;20047;-76
2023/05/18 01:46:22;;;;;;;8.80;4.00;;;9.00;99.90;;;;;;2088378;28;20024;-75
2023/05/18 01:47:27;;;;;;;8.48;3.80;;;9.00;99.90;;;;;;2093182;28;20579;-75
2023/05/18 01:48:28;;;;;;;8.40;3.60;;;9.00;99.90;;;;;;2091047;28;20036;-75
2023/05/18 01:49:44;;;;;;;9.98;4.00;;;9.10;99.90;;;;;;2089985;28;20281;-75
2023/05/18 01:50:48;;;;;;;8.80;4.05;;;9.00;99.90;;;;;;2087429;28;20405;-74
2023/05/18 01:51:50;;;;;;;9.55;4.10;;;9.00;99.90;;;;;;2101382;28;20486;-75
2023/05/18 01:52:57;;;;;;;9.63;4.35;;;9.00;99.90;;;;;;2105938;28;20026;-75
2023/05/18 01:54:04;;;;;;;10.48;4.03;;;9.00;99.90;;;;;;2096703;28;20024;-76
2023/05/18 01:55:06;;;;;;;11.52;4.38;;;9.00;99.90;;;;;;2092057;28;20047;-77
2023/05/18 01:56:09;;;;;;;11.35;4.30;;;9.00;99.90;;;;;;2091067;28;20530;-76
2023/05/18 01:57:10;;;;;;;11.45;4.15;;;9.00;99.90;;;;;;2091023;28;20550;-75
2023/05/18 01:58:12;;;;;;;10.43;4.20;;;9.00;99.90;;;;;;2095823;28;20433;-75
2023/05/18 01:59:15;;;;;;;10.73;4.00;;;9.00;99.90;;;;;;2093032;28;20076;-76
2023/05/18 02:00:17;;;;;;;8.68;4.05;;;9.00;99.90;;;;;;2079768;28;20542;-75
2023/05/18 02:01:21;;;;;;;11.25;4.43;;;9.00;99.90;;;;;;2097146;28;20044;-75
2023/05/18 02:02:21;;;;;;;10.38;4.60;;;9.00;99.90;;;;;;2090993;28;20024;-75
2023/05/18 02:03:22;;;;;;;12.00;4.65;;;9.00;99.90;;;;;;2082031;28;20444;-75
2023/05/18 02:04:23;;;;;;;11.95;4.22;;;9.00;99.90;;;;;;2080599;28;20377;-75
2023/05/18 02:05:24;;;;;;;6.72;3.83;;;9.00;99.90;;;;;;2086460;28;20503;-76
2023/05/18 02:06:25;;;;;;;12.15;4.38;;;9.00;99.90;;;;;;2090990;28;20078;-75
2023/05/18 02:07:25;;;;;;;11.57;4.38;;;9.00;99.90;;;;;;2090906;28;20443;-74
2023/05/18 02:08:26;;;;;;;8.20;3.90;;;9.00;99.90;;;;;;2088971;28;20028;-75
2023/05/18 02:09:27;;;;;;;9.77;4.35;;;9.00;99.90;;;;;;2080629;28;20025;-75
2023/05/18 02:10:27;;;;;;;10.27;4.40;;;8.90;99.90;;;;;;2090281;28;20016;-75
2023/05/18 02:11:28;;;;;;;11.35;4.35;;;8.90;99.90;;;;;;2099308;28;20063;-75
2023/05/18 02:12:29;;;;;;;9.00;4.13;;;8.90;99.90;;;;;;2098894;28;20636;-75
2023/05/18 02:13:30;;;;;;;9.57;4.40;;;8.90;99.90;;;;;;2100811;28;20475;-75
2023/05/18 02:14:32;;;;;;;9.70;4.32;;;8.90;99.90;;;;;;2091159;28;20508;-76
2023/05/18 02:15:33;;;;;;;10.65;4.63;;;8.90;99.90;;;;;;2094451;28;20107;-76
2023/05/18 02:16:34;;;;;;;11.52;4.43;;;8.90;99.90;;;;;;2099229;28;20032;-76
2023/05/18 02:17:38;;;;;;;14.45;4.30;;;8.90;99.90;;;;;;2101290;28;20028;-76
2023/05/18 02:18:39;;;;;;;10.30;4.30;;;8.90;99.90;;;;;;2093314;28;20051;-76
2023/05/18 02:19:40;;;;;;;9.80;4.25;;;8.90;99.90;;;;;;2090567;28;20087;-76
2023/05/18 02:20:40;;;;;;;8.43;4.20;;;8.90;99.90;;;;;;2093584;28;20027;-76
2023/05/18 02:21:42;;;;;;;10.27;3.80;;;8.90;99.90;;;;;;2098640;28;20031;-75
2023/05/18 02:22:44;;;;;;;9.48;4.18;;;8.90;99.90;;;;;;2097319;28;20210;-75
2023/05/18 02:23:45;;;;;;;11.85;4.57;;;8.90;99.90;;;;;;2090999;28;20046;-75
2023/05/18 02:24:45;;;;;;;10.15;4.05;;;8.90;99.90;;;;;;2092916;28;20036;-76
2023/05/18 02:25:46;;;;;;;11.23;4.32;;;8.90;99.90;;;;;;2094310;28;20029;-76
2023/05/18 02:26:47;;;;;;;16.10;4.60;;;8.80;99.90;;;;;;2086048;28;20101;-75
2023/05/18 02:27:47;;;;;;;9.15;4.13;;;8.80;99.90;;;;;;2091024;28;20409;-76
2023/05/18 02:28:48;;;;;;;11.80;4.40;;;8.80;99.90;;;;;;2088087;28;20044;-76
2023/05/18 02:29:50;;;;;;;9.55;4.00;;;8.80;99.90;;;;;;2090291;28;20040;-76
2023/05/18 02:30:51;;;;;;;11.35;4.00;;;8.80;99.90;;;;;;2090755;28;20035;-75
2023/05/18 02:31:51;;;;;;;8.10;4.07;;;8.80;99.90;;;;;;2100884;28;20043;-75
2023/05/18 02:32:52;;;;;;;9.65;4.22;;;8.80;99.90;;;;;;2098960;28;20024;-76
2023/05/18 02:33:52;;;;;;;10.75;4.35;;;8.80;99.90;;;;;;2090630;28;20040;-74
2023/05/18 02:34:53;;;;;;;9.75;4.22;;;8.80;99.90;;;;;;2085003;28;20067;-75
2023/05/18 02:35:55;;;;;;;14.27;4.43;;;8.80;99.90;;;;;;2090721;28;20103;-75
2023/05/18 02:36:56;;;;;;;13.50;4.55;;;8.80;99.90;;;;;;2097374;28;20032;-75
2023/05/18 02:37:57;;;;;;;10.90;4.57;;;8.80;99.90;;;;;;2099010;28;20024;-75
2023/05/18 02:38:59;;;;;;;9.13;4.30;;;8.80;99.90;;;;;;2080238;28;20029;-75
2023/05/18 02:40:00;;;;;;;11.07;4.35;;;8.80;99.90;;;;;;2088703;28;20083;-76
2023/05/18 02:41:00;;;;;;;10.57;4.60;;;8.70;99.90;;;;;;2100808;28;20070;-76
2023/05/18 02:42:01;;;;;;;12.30;4.68;;;8.70;99.90;;;;;;2099020;28;20035;-76
2023/05/18 02:43:02;;;;;;;11.75;4.63;;;8.70;99.90;;;;;;2098940;28;20028;-76
2023/05/18 02:44:04;;;;;;;12.77;4.68;;;8.70;99.90;;;;;;2090663;28;20025;-75
2023/05/18 02:45:06;;;;;;;11.40;4.80;;;8.70;99.90;;;;;;2079355;28;20123;-75
2023/05/18 02:46:07;;;;;;;10.93;4.72;;;8.70;99.90;;;;;;2080303;28;20053;-76
2023/05/18 02:47:07;;;;;;;9.18;4.60;;;8.70;99.90;;;;;;2077688;28;20037;-76
2023/05/18 02:48:10;;;;;;;12.95;4.45;;;8.70;99.90;;;;;;2080666;28;20021;-76
2023/05/18 02:49:10;;;;;;;9.55;4.40;;;8.60;99.90;;;;;;2098624;28;20436;-75
2023/05/18 02:50:12;;;;;;;9.82;4.10;;;8.60;99.90;;;;;;2096423;28;20024;-75
2023/05/18 02:51:13;;;;;;;10.65;4.60;;;8.60;99.90;;;;;;2090704;28;20028;-75
2023/05/18 02:52:15;;;;;;;12.05;4.95;;;8.60;99.90;;;;;;2090518;28;20105;-75
2023/05/18 02:53:15;;;;;;;11.18;5.15;;;8.60;99.90;;;;;;2087582;28;20495;-76
2023/05/18 02:54:16;;;;;;;12.68;4.72;;;8.50;99.90;;;;;;2092082;28;20056;-76
2023/05/18 02:55:17;;;;;;;11.38;4.65;;;8.50;99.90;;;;;;2089885;28;20126;-75
2023/05/18 02:56:37;;;;;;;11.52;4.55;;;8.50;99.90;;;;;;2084271;28;20036;-76
2023/05/18 02:57:55;;;;;;;9.82;4.53;;;8.50;99.90;;;;;;2084106;28;20117;-75
2023/05/18 02:58:57;;;;;;;10.30;4.63;;;8.50;99.90;;;;;;2091773;28;20488;-75
2023/05/18 03:00:10;;;;;;;8.48;4.50;;;8.40;99.90;;;;;;2088919;28;20028;-76
2023/05/18 03:01:11;;;;;;;10.55;4.97;;;8.40;99.90;;;;;;2089283;28;20111;-76
2023/05/18 03:02:17;;;;;;;9.85;4.70;;;8.40;99.90;;;;;;2085021;28;20115;-76
2023/05/18 03:03:18;;;;;;;14.05;5.15;;;8.40;99.90;;;;;;2095488;28;20033;-76
2023/05/18 03:04:20;;;;;;;10.30;4.50;;;8.40;99.90;;;;;;2086836;28;20093;-76
2023/05/18 03:05:26;;;;;;;9.35;4.68;;;8.40;99.90;;;;;;2096721;28;20032;-75
2023/05/18 03:06:29;;;;;;;10.80;4.65;;;8.30;99.90;;;;;;2098766;28;20490;-76
2023/05/18 03:07:31;;;;;;;10.02;4.78;;;8.30;99.90;;;;;;2090044;28;20115;-75
2023/05/18 03:08:32;;;;;;;11.82;5.00;;;8.30;99.90;;;;;;2084415;28;20132;-76
2023/05/18 03:09:33;;;;;;;11.10;4.80;;;8.30;99.90;;;;;;2075279;28;20036;-76
2023/05/18 03:10:33;;;;;;;9.95;4.72;;;8.30;99.90;;;;;;2085415;28;20295;-75
2023/05/18 03:11:34;;;;;;;13.25;5.10;;;8.30;99.90;;;;;;2082354;28;20102;-75
2023/05/18 03:12:35;;;;;;;11.15;5.25;;;8.30;99.90;;;;;;2076051;28;20022;-77
2023/05/18 03:13:35;;;;;;;13.18;5.20;;;8.30;99.90;;;;;;2082155;28;20035;-76
2023/05/18 03:14:36;;;;;;;10.45;5.20;;;8.30;99.90;;;;;;2080500;28;20285;-75
2023/05/18 03:15:38;;;;;;;10.85;5.10;;;8.30;99.90;;;;;;2086960;28;20031;-73
2023/05/18 03:16:38;;;;;;;13.98;4.95;;;8.30;99.90;;;;;;2096518;28;20294;-77
2023/05/18 03:17:42;;;;;;;9.65;5.20;;;8.30;99.90;;;;;;2096493;28;20475;-75
2023/05/18 03:18:43;;;;;;;11.10;5.28;;;8.30;99.90;;;;;;2090332;28;20067;-75
2023/05/18 03:19:44;;;;;;;12.05;4.93;;;8.30;99.90;;;;;;2081318;28;20029;-75
2023/05/18 03:20:45;;;;;;;8.10;4.68;;;8.30;99.90;;;;;;2073887;28;20084;-74
2023/05/18 03:21:48;;;;;;;9.63;4.57;;;8.30;99.90;;;;;;2080074;28;20025;-74
2023/05/18 03:22:49;;;;;;;13.50;5.28;;;8.30;99.90;;;;;;2088595;28;20044;-75
2023/05/18 03:23:49;;;;;;;11.13;4.90;;;8.30;99.90;;;;;;2090331;28;20048;-75
2023/05/18 03:24:50;;;;;;;9.63;4.82;;;8.30;99.90;;;;;;2082067;28;20516;-75
2023/05/18 03:25:53;;;;;;;10.20;4.72;;;8.30;99.90;;;;;;2084593;28;20407;-75
2023/05/18 03:26:55;;;;;;;13.90;4.68;;;8.30;99.90;;;;;;2087415;28;20123;-77
2023/05/18 03:27:57;;;;;;;9.88;4.90;;;8.30;99.90;;;;;;2095584;28;20248;-76
2023/05/18 03:29:00;;;;;;;10.93;4.95;;;8.30;99.90;;;;;;2096387;28;20113;-76
2023/05/18 03:30:00;;;;;;;13.80;5.00;;;8.30;99.90;;;;;;2098623;28;20399;-76
2023/05/18 03:31:02;;;;;;;9.95;4.72;;;8.30;99.90;;;;;;2092238;28;20033;-76
2023/05/18 03:32:04;;;;;;;10.98;5.00;;;8.30;99.90;;;;;;2093781;28;20029;-76
2023/05/18 03:33:05;;;;;;;10.75;4.50;;;8.30;99.90;;;;;;2090358;28;20479;-76
2023/05/18 03:34:06;;;;;;;11.88;5.03;;;8.30;99.90;;;;;;2093062;28;20024;-76
2023/05/18 03:35:07;;;;;;;10.43;4.95;;;8.30;99.90;;;;;;2100673;28;20074;-76
2023/05/18 03:36:08;;;;;;;9.02;5.28;;;8.30;99.90;;;;;;2090175;28;20029;-75
2023/05/18 03:37:08;;;;;;;9.68;4.97;;;8.30;99.90;;;;;;2090310;28;20027;-76
2023/05/18 03:38:09;;;;;;;12.30;4.80;;;8.30;99.90;;;;;;2087308;28;20078;-76
2023/05/18 03:39:12;;;;;;;9.95;4.90;;;8.30;99.90;;;;;;2096325;28;20119;-76
2023/05/18 03:40:14;;;;;;;10.70;5.13;;;8.30;99.90;;;;;;2081931;28;20032;-76
2023/05/18 03:41:16;;;;;;;13.18;5.50;;;8.20;99.90;;;;;;2082577;28;20064;-77
2023/05/18 03:42:17;;;;;;;10.45;4.90;;;8.20;99.90;;;;;;2091980;28;20641;-76
2023/05/18 03:43:17;;;;;;;11.30;5.00;;;8.20;99.90;;;;;;2098583;28;20032;-76
2023/05/18 03:44:21;;;;;;;15.40;5.18;;;8.20;99.90;;;;;;2092274;28;20122;-75
2023/05/18 03:45:22;;;;;;;10.13;5.10;;;8.20;99.90;;;;;;2092397;28;20032;-75
2023/05/18 03:46:22;;;;;;;11.52;5.10;;;8.20;99.90;;;;;;2089729;28;20424;-75
2023/05/18 03:47:23;;;;;;;10.60;5.13;;;8.20;99.90;;;;;;2097131;28;20032;-75
2023/05/18 03:48:24;;;;;;;8.57;5.22;;;8.10;99.90;;;;;;2094389;28;20486;-75
2023/05/18 03:49:25;;;;;;;12.18;5.47;;;8.10;99.90;;;;;;2095984;28;20035;-76
2023/05/18 03:50:28;;;;;;;11.20;4.90;;;8.10;99.90;;;;;;2089936;28;20136;-75
2023/05/18 03:51:30;;;;;;;13.43;5.32;;;8.10;99.90;;;;;;2074206;28;20025;-75
2023/05/18 03:52:33;;;;;;;11.93;5.03;;;8.10;99.90;;;;;;2073694;28;20045;-75
2023/05/18 03:53:35;;;;;;;9.60;4.97;;;8.00;99.90;;;;;;2076844;28;20075;-74
2023/05/18 03:54:35;;;;;;;11.27;5.15;;;8.00;99.90;;;;;;2092154;28;20051;-75
2023/05/18 03:55:36;;;;;;;9.00;4.80;;;8.00;99.90;;;;;;2090113;28;20100;-76
2023/05/18 03:56:36;;;;;;;13.07;5.40;;;8.10;99.90;;;;;;2091457;28;20038;-75
2023/05/18 03:57:37;;;;;;;10.68;5.50;;;8.10;99.90;;;;;;2096114;28;20027;-76
2023/05/18 03:58:38;;;;;;;12.00;4.88;;;8.10;99.90;;;;;;2100028;28;20336;-76
2023/05/18 03:59:38;;;;;;;14.18;5.05;;;8.10;99.90;;;;;;2093315;28;20032;-76
2023/05/18 04:00:39;;;;;;;11.23;4.93;;;8.10;99.90;;;;;;2093385;28;20261;-76
2023/05/18 04:01:41;;;;;;;10.38;5.00;;;8.10;99.90;;;;;;2098550;28;20024;-76
2023/05/18 04:02:41;;;;;;;10.75;5.05;;;8.10;99.90;;;;;;2100581;28;20133;-74
2023/05/18 04:03:42;;;;;;;11.90;5.10;;;8.10;99.90;;;;;;2098301;28;20044;-75
2023/05/18 04:04:46;;;;;;;11.98;5.05;;;8.20;99.90;;;;;;2089563;28;20123;-75
2023/05/18 04:05:47;;;;;;;9.75;5.13;;;8.20;99.90;;;;;;2081833;28;20029;-75
2023/05/18 04:06:50;;;;;;;10.18;5.10;;;8.30;99.90;;;;;;2096567;28;20031;-76
2023/05/18 04:07:50;;;;;;;11.15;5.10;;;8.30;99.90;;;;;;2096345;28;20052;-76
2023/05/18 04:08:52;;;;;;;12.68;5.10;;;8.30;99.90;;;;;;2081065;28;20098;-75
2023/05/18 04:09:54;;;;;;;12.32;5.40;;;8.40;99.90;;;;;;2088344;28;20082;-76
2023/05/18 04:10:55;;;;;;;13.07;5.18;;;8.40;99.90;;;;;;2082257;28;20024;-76
2023/05/18 04:11:55;;;;;;;10.90;4.63;;;8.50;99.90;;;;;;2092205;28;20246;-76
2023/05/18 04:12:56;;;;;;;11.50;4.78;;;8.60;99.90;;;;;;2090170;28;20054;-76
2023/05/18 04:14:00;;;;;;;9.68;4.60;;;8.60;99.90;;;;;;2095130;28;20597;-76
2023/05/18 04:15:02;;;;;;;11.10;5.10;;;8.80;99.90;;;;;;2096866;28;20032;-76
2023/05/18 04:16:03;;;;;;;12.93;4.90;;;8.90;99.90;;;;;;2089174;28;20035;-76
2023/05/18 04:17:05;;;;;;;9.80;4.82;;;9.10;99.90;;;;;;2079868;28;20025;-76
2023/05/18 04:18:06;;;;;;;11.57;4.47;;;9.30;99.90;;;;;;2076917;28;20126;-76
2023/05/18 04:19:07;;;;;;;10.43;4.50;;;9.50;99.90;;;;;;2073556;28;20039;-76
2023/05/18 04:20:11;;;;;;;10.85;4.40;;;9.70;99.90;;;;;;2090024;28;20051;-76
2023/05/18 04:21:12;;;;;;;12.23;4.88;;;10.00;99.90;;;;;;2104292;28;20055;-76
2023/05/18 04:22:13;;;;;;;13.95;4.82;;;10.20;99.90;;;;;;2094348;28;20028;-76
2023/05/18 04:23:13;;;;;;;9.00;4.43;;;10.40;99.90;;;;;;2091810;28;20525;-76
2023/05/18 04:24:15;;;;;;;11.85;4.28;;;10.70;99.90;;;;;;2090005;28;20494;-76
2023/05/18 04:25:16;;;;;;;11.23;4.50;;;10.90;99.90;;;;;;2096168;28;20201;-76
2023/05/18 04:26:18;;;;;;;13.52;4.50;;;11.00;99.90;;;;;;2094720;28;20371;-77
2023/05/18 04:27:21;;;;;;;12.63;4.55;;;11.10;99.90;;;;;;2096303;28;20413;-77
2023/05/18 04:28:22;;;;;;;16.52;9.93;;;11.20;99.90;;;;;;2094274;28;20043;-75
2023/05/18 04:29:23;;;;;;;10.88;6.05;;;11.30;99.90;;;;;;2089864;28;20044;-75
2023/05/18 04:30:28;;;;;;;11.82;4.93;;;11.40;99.90;;;;;;2085520;28;20064;-75
2023/05/18 04:31:29;;;;;;;10.98;4.45;;;11.50;99.90;;;;;;2086428;28;20039;-76
2023/05/18 04:32:35;;;;;;;11.40;4.68;;;11.60;99.90;;;;;;2081652;28;20036;-76
2023/05/18 04:33:37;;;;;;;9.98;4.40;;;11.80;99.90;;;;;;2087167;28;20020;-75
2023/05/18 04:34:38;;;;;;;9.82;3.92;;;11.90;99.90;;;;;;2088509;28;20031;-76
2023/05/18 04:35:38;;;;;;;9.18;4.03;;;12.10;99.90;;;;;;2083469;28;20168;-75
2023/05/18 04:36:41;;;;;;;10.93;4.35;;;12.20;99.90;;;;;;2089741;28;20040;-75
2023/05/18 04:37:42;;;;;;;9.38;3.97;;;12.30;99.90;;;;;;2096190;28;20085;-75
2023/05/18 04:38:49;;;;;;;10.60;4.00;;;12.50;99.90;;;;;;2098152;28;20058;-74
2023/05/18 04:39:50;;;;;;;11.35;4.20;;;12.60;99.90;;;;;;2091963;28;20038;-75
2023/05/18 04:40:52;;;;;;;15.50;4.30;;;12.70;99.90;;;;;;2089780;28;20032;-75
2023/05/18 04:41:59;;;;;;;9.52;4.35;;;12.80;99.90;;;;;;2089565;28;20087;-75
2023/05/18 04:43:02;;;;;;;8.70;4.10;;;12.90;99.90;;;;;;2089305;28;20059;-75
2023/05/18 04:44:05;;;;;;;11.05;4.53;;;13.10;99.90;;;;;;2085329;28;20029;-75
2023/05/18 04:45:06;;;;;;;11.63;4.20;;;13.20;99.90;;;;;;2095821;28;20511;-75
2023/05/18 04:46:07;;;;;;;10.30;4.18;;;13.30;99.90;;;;;;2081675;28;20554;-75
2023/05/18 04:47:08;;;;;;;10.02;4.05;;;13.40;99.90;;;;;;2081699;28;20025;-75
2023/05/18 04:48:09;;;;;;;9.25;3.95;;;13.60;99.90;;;;;;2096003;28;20468;-75
2023/05/18 04:49:11;;;;;;;9.73;3.70;;;13.70;99.70;;;;;;2081256;28;20040;-75
2023/05/18 04:50:15;;;;;;;8.93;3.80;;;13.90;98.50;;;;;;2083900;28;20086;-76
2023/05/18 04:51:20;;;;;;;7.75;3.90;;;13.90;97.50;;;;;;2079905;28;20033;-76
2023/05/18 04:52:20;;;;;;;9.57;3.95;;;13.90;96.90;;;;;;2090070;28;20028;-76
2023/05/18 04:53:21;;;;;;;9.93;4.00;;;13.80;96.70;;;;;;2079226;28;20033;-76
2023/05/18 04:54:23;;;;;;;10.35;4.18;;;13.60;96.80;;;;;;2076800;28;20049;-76
2023/05/18 04:55:26;;;;;;;7.93;3.80;;;13.50;97.40;;;;;;2083540;28;20514;-75
2023/05/18 04:56:30;;;;;;;10.70;4.60;;;13.50;97.60;;;;;;2080479;28;20033;-75
2023/05/18 04:57:31;;;;;;;8.70;3.90;;;13.40;97.40;;;;;;2081561;28;20570;-75
2023/05/18 04:58:34;;;;;;;8.43;3.88;;;13.40;97.60;;;;;;2089485;28;20090;-75
2023/05/18 04:59:35;;;;;;;9.98;3.85;;;13.40;97.50;;;;;;2080446;28;20275;-75
2023/05/18 05:00:37;;;;;;;10.77;4.03;;;13.40;97.40;;;;;;2081974;28;20119;-76
2023/05/18 05:01:38;;;;;;;9.68;4.10;;;13.50;97.30;;;;;;2092892;28;20024;-75
2023/05/18 05:02:39;;;;;;;10.88;4.15;;;13.60;96.60;;;;;;2083282;28;20025;-75
2023/05/18 05:03:41;;;;;;;9.68;3.88;;;13.80;96.40;;;;;;2078594;28;20024;-75
2023/05/18 05:04:41;;;;;;;10.20;4.20;;;13.90;95.90;;;;;;2073328;28;20508;-75
2023/05/18 05:05:42;;;;;;;12.60;4.10;;;14.10;95.00;;;;;;2074539;28;20040;-76
2023/05/18 05:06:42;;;;;;;11.45;4.20;;;14.20;94.20;;;;;;2093474;28;20028;-76
2023/05/18 05:07:43;;;;;;;9.20;4.63;;;14.40;93.50;;;;;;2096434;28;20025;-76
2023/05/18 05:08:44;;;;;;;10.70;3.97;;;14.40;93.10;;;;;;2098866;28;20895;-76
2023/05/18 05:09:45;;;;;;;9.85;4.03;;;14.50;92.50;;;;;;2097456;28;20028;-75
2023/05/18 05:10:46;;;;;;;8.77;4.05;;;14.50;92.40;;;;;;2099433;28;20365;-75
2023/05/18 05:11:47;;;;;;;9.30;4.20;;;14.70;92.10;;;;;;2099811;28;20030;-75
2023/05/18 05:12:50;;;;;;;8.82;3.45;;;14.80;91.40;;;;;;2101816;28;20048;-76
2023/05/18 05:13:51;;;;;;;7.50;3.85;;;14.90;90.50;;;;;;2100027;28;20043;-76
2023/05/18 05:14:52;;;;;;;9.43;4.13;;;15.10;89.10;;;;;;2099549;28;20215;-76
2023/05/18 05:15:54;;;;;;;12.52;4.00;;;15.20;88.00;;;;;;2091133;28;20116;-76
2023/05/18 05:16:55;;;;;;;9.00;3.90;;;15.40;86.20;;;;;;2097434;28;20031;-75
2023/05/18 05:17:57;;;;;;;8.35;3.63;;;15.40;85.70;;;;;;2099511;28;20052;-77
2023/05/18 05:19:01;;;;;;;8.60;3.90;;;15.50;85.40;;;;;;2109664;28;20083;-77
2023/05/18 05:20:03;;;;;;;9.30;3.72;;;15.70;84.40;;;;;;2091724;28;20050;-76
2023/05/18 05:21:08;;;;;;;8.88;3.90;;;15.80;82.50;;;;;;2075713;28;20535;-77
2023/05/18 05:22:09;;;;;;;8.98;3.63;;;15.90;81.00;;;;;;2084175;28;20048;-75
2023/05/18 05:23:12;;;;;;;7.93;3.53;;;16.00;80.20;;;;;;2093690;28;20373;-77
2023/05/18 05:24:18;;;;;;;8.88;3.90;;;16.20;79.10;;;;;;2088151;28;20057;-77
2023/05/18 05:25:20;;;;;;;9.65;3.80;;;16.20;77.90;;;;;;2076811;28;20060;-77
2023/05/18 05:26:21;;;;;;;9.82;3.83;;;16.30;77.10;;;;;;2083086;28;20245;-77